Time;durP1;ratioP1;P1;durP2;ratioP2;P2;SDS_P1;SDS_P2;PMS_P1;PMS_P2;Temp;Humidity;BMP_temperature;BMP_pressure;BME280_temperature;BME280_humidity;BME280_pressure;Samples;Min_cycle;Max_cycle;Signal;HPM_P1;HPM_P2
2021/11/16 00:01:42;;;;;;;26.33;14.63;;;6.80;71.30;;;;;;5045743;28;20052;-67
2021/11/16 00:04:09;;;;;;;25.95;15.02;;;6.80;71.60;;;;;;5046261;28;20033;-67
2021/11/16 00:06:36;;;;;;;28.85;14.90;;;6.80;71.70;;;;;;5045020;28;20092;-67
2021/11/16 00:09:05;;;;;;;29.88;15.35;;;6.80;71.80;;;;;;5044201;28;20040;-67
2021/11/16 00:11:32;;;;;;;25.77;14.13;;;6.80;71.80;;;;;;5046585;28;20481;-67
2021/11/16 00:13:58;;;;;;;28.48;14.32;;;6.70;71.80;;;;;;5033018;28;20124;-67
2021/11/16 00:16:24;;;;;;;26.08;13.95;;;6.80;72.00;;;;;;5048898;28;20448;-67
2021/11/16 00:18:56;;;;;;;25.48;14.15;;;6.70;71.90;;;;;;5046040;28;20041;-67
2021/11/16 00:21:25;;;;;;;30.42;15.32;;;6.70;71.80;;;;;;5042622;28;20048;-67
2021/11/16 00:23:55;;;;;;;29.20;15.75;;;6.70;71.60;;;;;;5046670;28;20033;-67
2021/11/16 00:26:22;;;;;;;28.10;15.25;;;6.70;71.50;;;;;;5045903;28;20041;-67
2021/11/16 00:28:48;;;;;;;31.40;15.55;;;6.60;71.60;;;;;;5034523;28;20029;-67
2021/11/16 00:31:14;;;;;;;27.05;14.60;;;6.70;72.10;;;;;;5038907;28;20033;-67
2021/11/16 00:33:40;;;;;;;25.60;13.60;;;6.70;72.00;;;;;;5042619;28;20052;-67
2021/11/16 00:36:08;;;;;;;25.38;14.23;;;6.70;72.20;;;;;;5043311;28;20075;-67
2021/11/16 00:38:35;;;;;;;30.17;14.50;;;6.80;72.30;;;;;;5046200;28;20025;-67
2021/11/16 00:41:01;;;;;;;24.25;13.48;;;6.80;72.40;;;;;;5046844;28;20032;-67
2021/11/16 00:43:27;;;;;;;25.80;13.93;;;6.90;72.40;;;;;;5038338;28;20025;-67
2021/11/16 00:45:53;;;;;;;26.55;14.30;;;7.00;72.50;;;;;;5043929;28;20506;-67
2021/11/16 00:48:23;;;;;;;28.35;14.07;;;7.10;72.60;;;;;;5043554;28;20532;-67
2021/11/16 00:50:52;;;;;;;26.25;13.52;;;7.20;72.30;;;;;;5037825;28;20565;-67
2021/11/16 00:53:19;;;;;;;25.23;13.75;;;7.30;72.00;;;;;;5046938;28;20104;-67
2021/11/16 00:55:45;;;;;;;29.25;14.80;;;7.30;71.70;;;;;;5047033;28;20029;-67
2021/11/16 00:58:12;;;;;;;26.35;14.63;;;7.40;71.60;;;;;;5034903;28;20524;-67
2021/11/16 01:00:38;;;;;;;27.67;14.27;;;7.50;71.80;;;;;;5041048;28;20103;-67
2021/11/16 01:03:04;;;;;;;25.45;14.30;;;7.50;71.80;;;;;;5046256;28;20018;-67
2021/11/16 01:05:30;;;;;;;28.90;15.00;;;7.60;71.80;;;;;;5049456;28;20037;-67
2021/11/16 01:07:56;;;;;;;27.77;15.73;;;7.60;71.70;;;;;;5050500;28;20082;-67
2021/11/16 01:10:23;;;;;;;31.45;16.92;;;7.70;71.70;;;;;;5050122;28;20033;-67
2021/11/16 01:12:49;;;;;;;32.08;15.73;;;7.70;71.70;;;;;;5040993;28;20444;-67
2021/11/16 01:15:16;;;;;;;27.25;14.55;;;7.70;71.80;;;;;;5041667;28;20415;-67
2021/11/16 01:17:43;;;;;;;29.80;15.85;;;7.80;71.90;;;;;;5049507;28;20017;-67
2021/11/16 01:20:11;;;;;;;28.77;15.95;;;7.80;72.00;;;;;;5049534;28;20151;-67
2021/11/16 01:22:37;;;;;;;28.73;16.15;;;7.80;72.10;;;;;;5038014;28;20017;-67
2021/11/16 01:25:05;;;;;;;28.50;15.88;;;7.80;72.20;;;;;;5047657;28;20057;-67
2021/11/16 01:27:35;;;;;;;28.52;15.40;;;7.80;72.30;;;;;;5048573;28;20036;-67
2021/11/16 01:30:03;;;;;;;33.28;17.15;;;7.90;72.50;;;;;;5050275;28;20049;-67
2021/11/16 01:32:37;;;;;;;29.63;17.17;;;7.90;72.60;;;;;;5041908;28;20030;-67
2021/11/16 01:35:04;;;;;;;28.83;15.93;;;7.90;72.80;;;;;;5049728;28;20025;-67
2021/11/16 01:37:30;;;;;;;27.17;15.52;;;7.90;72.80;;;;;;5040466;28;20029;-67
2021/11/16 01:39:56;;;;;;;29.05;16.83;;;7.90;73.00;;;;;;5042925;28;20044;-67
2021/11/16 01:42:23;;;;;;;32.38;18.20;;;7.90;73.10;;;;;;5042286;28;20033;-67
2021/11/16 01:44:50;;;;;;;35.15;18.65;;;7.90;73.30;;;;;;5037667;28;20035;-67
2021/11/16 01:47:16;;;;;;;34.63;19.20;;;7.90;73.40;;;;;;5032734;28;20049;-67
2021/11/16 01:49:43;;;;;;;38.63;20.88;;;8.00;73.60;;;;;;5049115;28;20111;-67
2021/11/16 01:52:09;;;;;;;37.85;20.17;;;8.00;73.70;;;;;;5037249;28;20029;-67
2021/11/16 01:54:36;;;;;;;40.00;20.25;;;8.00;73.60;;;;;;5041891;28;20039;-67
2021/11/16 01:57:03;;;;;;;36.03;20.05;;;8.10;73.80;;;;;;5046250;28;20100;-67
2021/11/16 01:59:29;;;;;;;37.42;20.30;;;8.10;73.90;;;;;;5035512;28;20068;-67
2021/11/16 02:01:55;;;;;;;36.47;20.52;;;8.10;74.00;;;;;;5034295;28;20132;-67
2021/11/16 02:04:22;;;;;;;38.33;20.02;;;8.10;74.10;;;;;;5044400;28;20076;-67
2021/11/16 02:06:48;;;;;;;36.08;20.08;;;8.10;74.20;;;;;;5049103;28;20033;-67
2021/11/16 02:09:15;;;;;;;35.03;19.27;;;8.10;74.30;;;;;;5048742;28;20028;-67
2021/11/16 02:11:42;;;;;;;35.47;19.48;;;8.10;74.50;;;;;;5047971;28;20044;-67
2021/11/16 02:14:12;;;;;;;34.03;19.08;;;8.10;74.50;;;;;;5042252;28;20443;-67
2021/11/16 02:16:38;;;;;;;34.88;18.85;;;8.10;74.50;;;;;;5061826;28;20016;-67
2021/11/16 02:19:06;;;;;;;36.05;20.52;;;8.20;74.60;;;;;;5045256;28;20037;-67
2021/11/16 02:21:32;;;;;;;38.40;20.02;;;8.10;74.60;;;;;;5042737;28;20083;-67
2021/11/16 02:23:58;;;;;;;33.72;18.77;;;8.20;74.60;;;;;;5050137;28;20025;-67
2021/11/16 02:26:24;;;;;;;40.08;21.05;;;8.10;74.60;;;;;;5049863;28;20025;-67
2021/11/16 02:28:50;;;;;;;35.45;19.25;;;8.10;74.70;;;;;;5053805;28;20036;-67
2021/11/16 02:31:17;;;;;;;34.28;19.40;;;8.10;74.70;;;;;;5047507;28;20024;-66
2021/11/16 02:33:44;;;;;;;38.00;20.35;;;8.10;74.80;;;;;;5048186;28;20036;-67
2021/11/16 02:36:12;;;;;;;35.83;19.05;;;8.20;75.00;;;;;;5038226;28;20029;-67
2021/11/16 02:38:39;;;;;;;42.53;20.52;;;8.20;75.00;;;;;;5047700;28;20124;-67
2021/11/16 02:41:06;;;;;;;38.80;19.52;;;8.10;75.00;;;;;;5049603;28;20037;-67
2021/11/16 02:43:34;;;;;;;37.65;20.52;;;8.10;75.10;;;;;;5036369;28;20215;-67
2021/11/16 02:46:02;;;;;;;36.80;19.73;;;8.10;75.30;;;;;;5043275;28;20043;-67
2021/11/16 02:48:28;;;;;;;40.08;19.80;;;8.10;75.30;;;;;;5047994;28;20045;-67
2021/11/16 02:50:57;;;;;;;35.83;20.35;;;8.20;75.50;;;;;;5049096;28;20036;-67
2021/11/16 02:53:24;;;;;;;37.22;20.20;;;8.20;75.60;;;;;;5049546;28;20052;-67
2021/11/16 02:55:50;;;;;;;38.60;19.85;;;8.20;75.60;;;;;;5046227;28;20027;-67
2021/11/16 02:58:19;;;;;;;38.83;20.40;;;8.20;75.60;;;;;;5048352;28;20036;-67
2021/11/16 03:00:54;;;;;;;36.83;20.30;;;8.20;75.50;;;;;;5040192;28;20045;-67
2021/11/16 03:03:21;;;;;;;35.85;19.98;;;8.20;75.50;;;;;;5046166;28;20055;-67
2021/11/16 03:05:47;;;;;;;39.20;21.13;;;8.20;75.50;;;;;;5051828;28;20021;-67
2021/11/16 03:08:19;;;;;;;39.85;20.27;;;8.20;75.50;;;;;;5049103;28;20070;-67
2021/11/16 03:10:45;;;;;;;34.97;20.08;;;8.20;75.70;;;;;;5055537;28;20078;-67
2021/11/16 03:13:12;;;;;;;36.03;19.55;;;8.30;75.90;;;;;;5054942;28;20028;-67
2021/11/16 03:15:40;;;;;;;40.60;20.52;;;8.30;76.00;;;;;;5044125;28;20116;-67
2021/11/16 03:18:07;;;;;;;38.20;20.45;;;8.30;76.10;;;;;;5035641;28;20116;-67
2021/11/16 03:20:33;;;;;;;34.60;19.23;;;8.30;76.10;;;;;;5051189;28;20507;-67
2021/11/16 03:23:10;;;;;;;33.75;19.75;;;8.30;76.20;;;;;;5052744;28;20030;-67
2021/11/16 03:25:41;;;;;;;41.03;20.17;;;8.30;76.20;;;;;;5061239;28;20431;-67
2021/11/16 03:28:10;;;;;;;38.55;20.10;;;8.40;76.30;;;;;;5038186;28;20024;-67
2021/11/16 03:30:36;;;;;;;36.40;19.30;;;8.40;76.30;;;;;;5051279;28;20028;-67
2021/11/16 03:33:04;;;;;;;37.80;20.00;;;8.40;76.40;;;;;;5058449;28;20021;-67
2021/11/16 03:35:31;;;;;;;39.83;21.00;;;8.40;76.40;;;;;;5044981;28;20029;-67
2021/11/16 03:37:58;;;;;;;37.80;20.60;;;8.40;76.40;;;;;;5039782;28;20020;-67
2021/11/16 03:40:27;;;;;;;38.65;19.90;;;8.40;76.50;;;;;;5045518;28;20033;-67
2021/11/16 03:42:53;;;;;;;41.35;20.60;;;8.40;76.60;;;;;;5025803;28;20029;-67
2021/11/16 03:45:23;;;;;;;39.00;20.20;;;8.50;76.70;;;;;;5040258;28;20028;-67
2021/11/16 03:47:49;;;;;;;37.10;19.02;;;8.50;76.80;;;;;;5033904;28;20606;-67
2021/11/16 03:50:19;;;;;;;39.35;20.10;;;8.50;76.90;;;;;;5046982;28;20462;-67
2021/11/16 03:52:49;;;;;;;38.60;20.70;;;8.50;76.90;;;;;;5040314;28;20021;-67
2021/11/16 03:55:16;;;;;;;38.90;19.98;;;8.50;77.00;;;;;;5038227;28;20032;-67
2021/11/16 03:57:43;;;;;;;41.00;20.42;;;8.50;77.00;;;;;;5037192;28;20040;-67
2021/11/16 04:00:16;;;;;;;39.17;20.80;;;8.50;77.10;;;;;;5039234;28;20037;-67
2021/11/16 04:02:42;;;;;;;39.47;21.00;;;8.50;77.10;;;;;;5053020;28;20056;-67
2021/11/16 04:05:08;;;;;;;42.15;21.23;;;8.50;77.10;;;;;;5036390;28;20037;-67
2021/11/16 04:07:34;;;;;;;37.72;20.77;;;8.50;77.10;;;;;;5038648;28;20079;-67
2021/11/16 04:10:00;;;;;;;40.00;21.30;;;8.50;77.20;;;;;;5049040;28;20085;-66
2021/11/16 04:12:26;;;;;;;37.70;20.27;;;8.60;77.30;;;;;;5047841;28;20028;-67
2021/11/16 04:14:52;;;;;;;39.97;20.05;;;8.60;77.30;;;;;;5046021;28;20552;-67
2021/11/16 04:17:18;;;;;;;39.50;20.45;;;8.50;77.30;;;;;;5033366;28;20064;-67
2021/11/16 04:19:44;;;;;;;38.17;19.90;;;8.60;77.30;;;;;;5034753;28;20069;-67
2021/11/16 04:22:10;;;;;;;38.05;20.17;;;8.60;77.40;;;;;;5057740;28;20063;-67
2021/11/16 04:24:37;;;;;;;40.38;19.75;;;8.60;77.50;;;;;;5051063;28;20098;-67
2021/11/16 04:27:03;;;;;;;39.28;20.58;;;8.60;77.50;;;;;;5052880;28;20051;-67
2021/11/16 04:29:29;;;;;;;37.80;20.25;;;8.60;77.60;;;;;;5045845;28;20155;-67
2021/11/16 04:31:56;;;;;;;35.55;20.10;;;8.60;77.60;;;;;;5048481;28;20111;-67
2021/11/16 04:34:22;;;;;;;38.10;19.65;;;8.60;77.60;;;;;;5050397;28;20472;-67
2021/11/16 04:36:48;;;;;;;39.08;20.83;;;8.60;77.60;;;;;;5040693;28;20151;-67
2021/11/16 04:39:14;;;;;;;38.95;20.65;;;8.70;77.70;;;;;;5054427;28;20064;-67
2021/11/16 04:41:43;;;;;;;39.97;20.55;;;8.70;77.70;;;;;;5062767;28;20025;-67
2021/11/16 04:44:08;;;;;;;39.67;20.15;;;8.60;77.70;;;;;;5055207;28;20440;-67
2021/11/16 04:46:34;;;;;;;38.05;18.90;;;8.70;77.80;;;;;;5052789;28;20092;-67
2021/11/16 04:51:59;;;;;;;39.63;20.73;;;8.70;77.90;;;;;;5047537;28;20075;-67
2021/11/16 04:59:49;;;;;;;39.40;20.02;;;8.70;78.10;;;;;;4987594;28;20050;-67
2021/11/16 05:05:02;;;;;;;40.13;20.63;;;8.70;78.10;;;;;;4973388;28;20073;-67
2021/11/16 05:07:31;;;;;;;35.28;19.42;;;8.70;78.10;;;;;;4985307;28;20057;-67
2021/11/16 05:09:58;;;;;;;39.67;20.52;;;8.70;78.20;;;;;;4989283;28;20537;-67
2021/11/16 05:12:27;;;;;;;40.35;21.77;;;8.70;78.30;;;;;;4986360;28;20058;-67
2021/11/16 05:14:58;;;;;;;37.53;20.08;;;8.80;78.30;;;;;;4980506;28;20582;-67
2021/11/16 05:17:24;;;;;;;38.53;19.92;;;8.70;78.40;;;;;;4989155;28;20516;-67
2021/11/16 05:19:50;;;;;;;36.15;20.25;;;8.70;78.40;;;;;;4985506;28;20038;-67
2021/11/16 05:22:16;;;;;;;41.03;21.25;;;8.70;78.40;;;;;;4980550;28;20493;-67
2021/11/16 05:24:42;;;;;;;39.78;20.48;;;8.70;78.40;;;;;;4982041;28;20081;-67
2021/11/16 05:27:08;;;;;;;38.05;20.38;;;8.70;78.50;;;;;;4984704;28;20137;-67
2021/11/16 05:29:34;;;;;;;37.00;19.50;;;8.70;78.50;;;;;;4975539;28;20053;-67
2021/11/16 05:32:00;;;;;;;39.50;20.58;;;8.80;78.60;;;;;;4986904;28;20078;-67
2021/11/16 05:34:26;;;;;;;40.67;21.80;;;8.80;78.60;;;;;;4989546;28;20113;-67
2021/11/16 05:36:52;;;;;;;38.58;21.42;;;8.70;78.60;;;;;;5017669;28;20040;-67
2021/11/16 05:39:18;;;;;;;38.08;20.02;;;8.70;78.60;;;;;;5058021;28;20389;-66
2021/11/16 05:41:47;;;;;;;41.60;21.40;;;8.70;78.70;;;;;;5054280;28;20509;-67
2021/11/16 05:44:13;;;;;;;39.55;20.85;;;8.70;78.70;;;;;;5051023;28;20017;-67
2021/11/16 05:46:39;;;;;;;37.33;19.83;;;8.70;78.70;;;;;;5050039;28;20528;-66
2021/11/16 05:49:05;;;;;;;37.10;19.73;;;8.70;78.80;;;;;;5037220;28;20068;-67
2021/11/16 05:51:31;;;;;;;37.85;20.55;;;8.70;78.90;;;;;;5042683;28;20068;-67
2021/11/16 05:54:00;;;;;;;40.45;20.42;;;8.70;78.90;;;;;;5037218;28;20029;-66
2021/11/16 05:56:28;;;;;;;40.22;19.88;;;8.80;79.00;;;;;;5034662;28;20041;-67
2021/11/16 05:58:57;;;;;;;37.17;20.38;;;8.80;79.10;;;;;;5066556;28;20392;-67
2021/11/16 06:01:28;;;;;;;39.35;20.60;;;8.80;79.20;;;;;;5064393;28;20031;-66
2021/11/16 06:03:55;;;;;;;39.40;20.38;;;8.80;79.20;;;;;;5041716;28;20078;-67
2021/11/16 06:06:31;;;;;;;36.72;19.38;;;8.80;79.40;;;;;;5051899;28;20086;-67
2021/11/16 06:09:00;;;;;;;38.33;19.92;;;8.80;79.40;;;;;;5051587;28;20036;-66
2021/11/16 06:11:26;;;;;;;36.95;20.17;;;8.80;79.40;;;;;;5051244;28;20025;-66
2021/11/16 06:13:54;;;;;;;39.55;19.67;;;8.80;79.50;;;;;;5053728;28;20029;-67
2021/11/16 06:16:20;;;;;;;38.78;20.55;;;8.80;79.60;;;;;;5053286;28;20029;-67
2021/11/16 06:18:51;;;;;;;39.60;20.38;;;8.80;79.60;;;;;;5052323;28;20087;-67
2021/11/16 06:21:18;;;;;;;37.92;19.23;;;8.80;79.60;;;;;;5045215;28;20036;-66
2021/11/16 06:23:43;;;;;;;35.13;18.50;;;8.80;79.60;;;;;;5046638;28;20440;-66
2021/11/16 06:26:09;;;;;;;37.97;20.10;;;8.80;79.60;;;;;;5053061;28;20079;-66
2021/11/16 06:28:35;;;;;;;44.60;21.40;;;8.80;79.70;;;;;;5050868;28;20033;-67
2021/11/16 06:31:01;;;;;;;42.85;21.13;;;8.80;79.70;;;;;;5037734;28;20084;-67
2021/11/16 06:33:27;;;;;;;39.75;20.63;;;8.80;79.70;;;;;;5049903;28;20047;-67
2021/11/16 06:35:53;;;;;;;42.00;21.10;;;8.80;79.80;;;;;;5047761;28;20498;-67
2021/11/16 06:38:19;;;;;;;41.88;21.75;;;8.80;79.80;;;;;;5048791;28;20595;-67
2021/11/16 06:40:48;;;;;;;42.05;20.67;;;8.80;79.90;;;;;;5049941;28;20102;-67
2021/11/16 06:43:31;;;;;;;41.05;20.40;;;8.80;80.00;;;;;;5058871;28;20020;-67
2021/11/16 06:46:00;;;;;;;36.75;19.27;;;8.80;80.10;;;;;;5040252;28;20074;-67
2021/11/16 06:48:27;;;;;;;33.72;17.98;;;8.80;80.10;;;;;;5039035;28;20044;-67
2021/11/16 06:50:54;;;;;;;36.65;19.05;;;8.90;80.30;;;;;;5050043;28;20021;-67
2021/11/16 06:53:38;;;;;;;38.63;19.33;;;8.90;80.30;;;;;;5045002;28;20064;-67
2021/11/16 06:56:05;;;;;;;43.22;21.00;;;8.90;80.30;;;;;;5040973;28;20541;-67
2021/11/16 06:58:34;;;;;;;39.13;20.20;;;8.80;80.30;;;;;;5043180;28;20047;-67
2021/11/16 07:01:00;;;;;;;42.30;20.73;;;8.80;80.30;;;;;;5037375;28;20049;-68
2021/11/16 07:03:26;;;;;;;42.15;21.13;;;8.90;80.40;;;;;;5035841;28;20018;-67
2021/11/16 07:05:57;;;;;;;39.33;19.75;;;8.90;80.50;;;;;;5035513;28;20033;-67
2021/11/16 07:08:35;;;;;;;41.35;19.55;;;8.90;80.50;;;;;;5032363;28;20500;-68
2021/11/16 07:11:18;;;;;;;36.72;19.08;;;8.90;80.50;;;;;;5033839;28;20034;-68
2021/11/16 07:14:09;;;;;;;41.25;19.65;;;8.90;80.50;;;;;;5031702;28;20036;-67
2021/11/16 07:16:53;;;;;;;44.63;20.10;;;8.90;80.50;;;;;;5035494;28;20071;-68
2021/11/16 07:19:37;;;;;;;38.20;20.13;;;8.90;80.60;;;;;;5039894;28;20113;-66
2021/11/16 07:22:14;;;;;;;40.42;21.13;;;8.90;80.50;;;;;;5035756;28;20034;-66
2021/11/16 07:24:41;;;;;;;40.88;20.77;;;8.90;81.40;;;;;;5035678;28;20045;-67
2021/11/16 07:27:08;;;;;;;39.00;20.33;;;8.90;80.60;;;;;;5041805;28;20075;-67
2021/11/16 07:29:38;;;;;;;38.65;19.70;;;8.90;80.60;;;;;;5046970;28;20038;-67
2021/11/16 07:32:09;;;;;;;40.72;20.38;;;8.90;80.70;;;;;;5032602;28;20030;-67
2021/11/16 07:34:35;;;;;;;;;;;9.00;80.70;;;;;;5051405;28;20037;-67
2021/11/16 07:37:25;;;;;;;41.95;19.92;;;8.90;80.70;;;;;;5037055;28;19909;-68
2021/11/16 07:39:52;;;;;;;39.78;20.30;;;9.00;80.70;;;;;;5046161;28;20079;-68
2021/11/16 07:42:24;;;;;;;37.42;20.23;;;9.00;80.70;;;;;;5042850;28;20021;-67
2021/11/16 07:45:01;;;;;;;41.90;21.48;;;9.00;81.70;;;;;;5045988;28;20029;-67
2021/11/16 07:47:56;;;;;;;42.38;21.63;;;9.00;80.70;;;;;;5036141;28;20048;-68
2021/11/16 07:50:30;;;;;;;43.00;21.75;;;9.00;80.70;;;;;;5031066;28;20027;-67
2021/11/16 07:53:29;;;;;;;44.38;22.00;;;9.00;80.60;;;;;;5051317;28;20077;-67
2021/11/16 07:56:13;;;;;;;43.17;22.80;;;9.10;80.70;;;;;;5041941;28;20041;-67
2021/11/16 07:58:56;;;;;;;46.03;22.70;;;9.10;80.70;;;;;;5047915;28;20034;-67
2021/11/16 08:01:37;;;;;;;44.22;22.05;;;9.10;80.60;;;;;;5046064;28;20087;-67
2021/11/16 08:09:42;;;;;;;46.38;22.95;;;9.10;80.60;;;;;;5051005;28;20078;-67
2021/11/16 08:14:56;;;;;;;50.83;24.35;;;9.20;80.60;;;;;;5053017;28;20411;-67
2021/11/16 08:17:24;;;;;;;65.85;36.42;;;9.20;80.80;;;;;;5033178;28;20041;-67
2021/11/16 08:19:59;;;;;;;54.47;26.33;;;9.30;80.90;;;;;;5033546;28;20098;-67
2021/11/16 08:22:25;;;;;;;54.42;24.95;;;9.30;80.90;;;;;;5038552;28;20392;-67
2021/11/16 08:24:54;;;;;;;54.50;25.63;;;9.30;81.00;;;;;;5043776;28;20025;-67
2021/11/16 08:27:24;;;;;;;50.05;24.92;;;9.30;81.10;;;;;;5044845;28;20512;-67
2021/11/16 08:30:08;;;;;;;54.53;26.42;;;9.30;81.30;;;;;;5035841;28;20048;-67
2021/11/16 08:32:38;;;;;;;53.80;26.15;;;9.40;81.20;;;;;;5032422;28;20022;-67
2021/11/16 08:35:13;;;;;;;64.43;36.90;;;9.40;81.20;;;;;;5034144;28;20028;-66
2021/11/16 08:37:41;;;;;;;70.68;41.83;;;9.50;81.10;;;;;;5031558;28;20461;-67
2021/11/16 08:40:18;;;;;;;66.60;35.28;;;9.50;81.00;;;;;;5044797;28;20044;-67
2021/11/16 08:43:01;;;;;;;54.20;26.98;;;9.50;80.90;;;;;;5050296;28;20047;-66
2021/11/16 08:45:33;;;;;;;57.15;27.73;;;9.60;80.80;;;;;;5046399;28;20036;-68
2021/11/16 08:48:11;;;;;;;53.97;27.35;;;9.60;80.80;;;;;;5035817;28;20500;-67
2021/11/16 08:50:44;;;;;;;57.67;27.83;;;9.70;80.80;;;;;;5053677;28;20090;-66
2021/11/16 08:53:31;;;;;;;55.47;26.55;;;9.70;80.80;;;;;;5054458;28;20400;-67
2021/11/16 08:55:58;;;;;;;56.45;26.45;;;9.80;80.80;;;;;;5045475;28;20035;-67
2021/11/16 08:58:26;;;;;;;55.70;26.83;;;9.80;80.70;;;;;;5045155;28;20072;-67
2021/11/16 09:01:01;;;;;;;60.97;28.45;;;9.80;80.60;;;;;;5057662;28;20037;-68
2021/11/16 09:03:30;;;;;;;54.85;27.33;;;9.80;80.50;;;;;;5034100;28;20061;-67
2021/11/16 09:05:59;;;;;;;54.10;27.08;;;9.90;80.40;;;;;;5044774;28;20109;-67
2021/11/16 09:09:11;;;;;;;59.15;27.70;;;9.90;80.30;;;;;;5031345;28;20041;-66
2021/11/16 09:11:38;;;;;;;56.17;26.80;;;9.90;80.40;;;;;;5043119;28;20047;-66
2021/11/16 09:14:12;;;;;;;53.65;26.45;;;10.00;80.30;;;;;;5031520;28;20034;-67
2021/11/16 09:16:40;;;;;;;57.15;28.13;;;10.00;80.20;;;;;;5042919;28;20032;-66
2021/11/16 09:19:21;;;;;;;54.63;27.95;;;10.10;80.30;;;;;;5043608;28;20029;-67
2021/11/16 09:21:47;;;;;;;54.85;26.67;;;10.10;80.30;;;;;;5048168;28;20575;-67
2021/11/16 09:24:16;;;;;;;55.17;27.20;;;10.10;80.10;;;;;;5049653;28;20103;-67
2021/11/16 09:29:21;;;;;;;56.83;27.48;;;10.20;80.00;;;;;;5036831;28;20028;-67
2021/11/16 09:32:05;;;;;;;55.90;27.90;;;10.20;80.10;;;;;;5049916;28;20032;-67
2021/11/16 09:34:48;;;;;;;54.58;26.60;;;10.20;80.30;;;;;;5046116;28;20064;-67
2021/11/16 09:37:23;;;;;;;54.70;27.17;;;10.20;80.20;;;;;;5066410;28;20410;-67
2021/11/16 09:39:52;;;;;;;58.85;28.10;;;10.30;80.30;;;;;;5052923;28;20045;-67
2021/11/16 09:42:30;;;;;;;55.55;28.10;;;10.30;80.20;;;;;;5056501;28;20021;-67
2021/11/16 09:45:05;;;;;;;57.90;28.05;;;10.30;80.30;;;;;;5058458;28;20025;-67
2021/11/16 09:47:40;;;;;;;58.22;29.25;;;10.50;80.40;;;;;;5048519;28;20045;-67
2021/11/16 09:50:10;;;;;;;56.60;27.30;;;10.30;80.30;;;;;;5061057;28;20036;-67
2021/11/16 09:52:43;;;;;;;57.95;28.13;;;10.30;80.30;;;;;;5051605;28;20494;-67
2021/11/16 09:55:23;;;;;;;55.88;27.70;;;10.30;80.30;;;;;;5051670;28;20554;-68
2021/11/16 09:57:57;;;;;;;54.58;27.15;;;10.40;80.30;;;;;;5046119;28;20434;-66
2021/11/16 10:00:27;;;;;;;55.50;26.73;;;10.40;80.30;;;;;;5049521;28;20037;-67
2021/11/16 10:02:59;;;;;;;56.65;28.70;;;10.40;80.30;;;;;;5058777;28;20547;-67
2021/11/16 10:05:27;;;;;;;57.83;28.10;;;10.40;81.20;;;;;;5054377;28;20499;-67
2021/11/16 10:07:59;;;;;;;55.80;28.45;;;10.50;80.30;;;;;;5033830;28;20025;-68
2021/11/16 10:10:28;;;;;;;61.97;28.80;;;10.50;80.20;;;;;;5055567;28;20064;-67
2021/11/16 10:12:57;;;;;;;57.55;28.85;;;10.50;80.20;;;;;;5032098;28;20051;-66
2021/11/16 10:15:26;;;;;;;61.28;29.30;;;10.60;80.30;;;;;;5046984;28;20119;-67
2021/11/16 10:17:53;;;;;;;59.92;28.70;;;10.50;80.10;;;;;;5045422;28;20022;-67
2021/11/16 10:20:22;;;;;;;57.53;29.23;;;10.60;80.10;;;;;;5052712;28;20039;-67
2021/11/16 10:22:53;;;;;;;56.78;28.20;;;10.60;80.00;;;;;;5048689;28;20491;-68
2021/11/16 10:25:22;;;;;;;55.05;27.25;;;10.70;80.00;;;;;;5040549;28;20492;-67
2021/11/16 10:27:51;;;;;;;59.65;28.58;;;10.70;79.90;;;;;;5050841;28;20021;-67
2021/11/16 10:30:16;;;;;;;55.90;28.15;;;10.70;79.80;;;;;;5055551;28;20090;-68
2021/11/16 10:32:46;;;;;;;57.95;28.23;;;10.70;79.90;;;;;;5047745;28;20468;-67
2021/11/16 10:35:21;;;;;;;54.33;26.95;;;10.80;79.80;;;;;;5040341;28;20033;-67
2021/11/16 10:37:57;;;;;;;55.33;27.30;;;10.80;79.70;;;;;;5031237;28;20086;-67
